Time;durP1;ratioP1;P1;durP2;ratioP2;P2;SDS_P1;SDS_P2;PMS_P1;PMS_P2;Temp;Humidity;BMP_temperature;BMP_pressure;BME280_temperature;BME280_humidity;BME280_pressure;Samples;Min_cycle;Max_cycle;Signal;HPM_P1;HPM_P2
2021/05/26 00:01:26;;;;;;;13.72;6.65;;;;;;;14.05;81.50;100510.29;1712652;82;21304;-79
2021/05/26 00:04:33;;;;;;;17.55;6.40;;;;;;;14.03;81.41;100497.80;1734803;81;21285;-79
2021/05/26 00:07:38;;;;;;;13.43;7.72;;;;;;;14.02;81.77;100494.69;1733689;81;21288;-79
2021/05/26 00:10:44;;;;;;;12.95;6.37;;;;;;;14.02;82.29;100493.31;1735003;82;21324;-79
2021/05/26 00:13:53;;;;;;;15.80;7.17;;;;;;;14.02;82.17;100500.19;1734935;81;21894;-79
2021/05/26 00:16:59;;;;;;;16.73;6.67;;;;;;;14.00;81.88;100492.14;1733553;82;21173;-79
2021/05/26 00:20:05;;;;;;;17.27;7.15;;;;;;;13.96;81.47;100497.70;1734820;82;21801;-79
2021/05/26 00:22:57;;;;;;;10.58;6.55;;;;;;;13.92;81.43;100496.38;1735119;81;21205;-79
2021/05/26 00:25:50;;;;;;;13.80;8.10;;;;;;;13.89;81.43;100489.91;1734989;82;21168;-79
2021/05/26 00:28:35;;;;;;;18.67;9.60;;;;;;;13.89;81.67;100489.91;1734971;81;21209;-79
2021/05/26 00:31:28;;;;;;;20.40;8.18;;;;;;;13.89;81.78;100487.16;1734889;82;21169;-79
2021/05/26 00:34:13;;;;;;;15.55;8.25;;;;;;;13.91;82.70;100475.96;1734963;81;21953;-79
2021/05/26 00:37:05;;;;;;;18.32;8.70;;;;;;;13.94;82.79;100477.80;1735023;82;21213;-79
2021/05/26 00:40:12;;;;;;;14.20;8.40;;;;;;;13.98;82.51;100481.88;1735089;82;21292;-79
2021/05/26 00:43:17;;;;;;;17.40;8.50;;;;;;;14.01;83.22;100475.97;1734959;81;21324;-79
2021/05/26 00:46:23;;;;;;;15.23;8.63;;;;;;;14.03;83.20;100478.02;1734941;82;21823;-79
2021/05/26 00:49:28;;;;;;;15.78;7.58;;;;;;;14.03;82.69;100476.64;1734861;81;21324;-79
2021/05/26 00:52:33;;;;;;;18.27;7.65;;;;;;;14.05;82.67;100477.28;1734950;81;21819;-79
2021/05/26 00:55:40;;;;;;;17.98;8.40;;;;;;;14.08;82.55;100473.84;1733390;82;21173;-79
2021/05/26 00:58:47;;;;;;;12.28;7.65;;;;;;;14.05;82.24;100474.53;1734956;81;21320;-79
2021/05/26 01:01:53;;;;;;;16.90;7.62;;;;;;;14.02;83.07;100477.70;1734976;82;21202;-79
2021/05/26 01:04:59;;;;;;;14.25;7.00;;;;;;;14.03;83.35;100475.80;1734877;82;21308;-79
2021/05/26 01:08:05;;;;;;;15.43;7.05;;;;;;;14.04;83.51;100471.98;1734778;81;21311;-79
2021/05/26 01:11:11;;;;;;;18.50;7.50;;;;;;;14.06;83.92;100470.73;1735003;82;21277;-79
2021/05/26 01:14:17;;;;;;;13.08;7.33;;;;;;;14.08;83.70;100470.56;1733426;81;21209;-79
2021/05/26 01:17:24;;;;;;;9.20;6.78;;;;;;;14.11;83.32;100472.05;1735127;81;21190;-79
2021/05/26 01:20:36;;;;;;;9.70;5.97;;;;;;;14.08;82.97;100469.71;1707648;82;21808;-79
2021/05/26 01:23:41;;;;;;;11.88;6.28;;;;;;;14.05;82.96;100469.03;1735071;81;21300;-79
2021/05/26 01:26:51;;;;;;;10.50;5.87;;;;;;;14.09;82.95;100464.53;1735095;82;21272;-79
2021/05/26 01:29:56;;;;;;;11.20;6.72;;;;;;;14.07;82.46;100460.61;1735131;82;21771;-79
2021/05/26 01:33:02;;;;;;;9.85;6.15;;;;;;;14.05;82.26;100465.44;1734788;81;21324;-79
2021/05/26 01:36:09;;;;;;;13.72;6.85;;;;;;;14.00;82.45;100461.89;1735033;82;21839;-79
2021/05/26 01:39:16;;;;;;;9.48;5.90;;;;;;;13.98;82.94;100461.25;1735009;81;21315;-79
2021/05/26 01:42:40;;;;;;;13.40;6.25;;;;;;;13.96;83.28;100459.73;1733427;81;21255;-79
2021/05/26 01:45:45;;;;;;;6.75;5.40;;;;;;;13.95;83.95;100463.01;1734967;82;21184;-79
2021/05/26 01:48:54;;;;;;;14.18;5.83;;;;;;;13.97;84.83;100464.17;1735011;81;21851;-79
2021/05/26 01:52:00;;;;;;;17.67;6.10;;;;;;;14.00;85.32;100457.77;1734928;82;21181;-79
2021/05/26 01:55:06;;;;;;;10.78;6.37;;;;;;;14.03;85.55;100467.02;1735049;82;21289;-79
2021/05/26 01:58:13;;;;;;;11.93;6.15;;;;;;;14.05;85.56;100458.56;1735137;81;21225;-79
2021/05/26 02:01:21;;;;;;;10.32;5.78;;;;;;;14.08;85.22;100455.95;1735060;82;21823;-79
2021/05/26 02:04:30;;;;;;;8.40;5.58;;;;;;;14.12;84.97;100461.40;1735134;81;21205;-79
2021/05/26 02:07:35;;;;;;;8.45;6.05;;;;;;;14.20;84.83;100466.75;1734897;81;21336;-79
2021/05/26 02:14:08;;;;;;;7.67;6.00;;;;;;;14.31;84.05;100479.48;1734063;81;21839;-79
2021/05/26 02:17:13;;;;;;;8.38;5.83;;;;;;;14.36;83.86;100478.89;1735182;82;21161;-79
2021/05/26 02:20:21;;;;;;;8.38;5.50;;;;;;;14.46;83.69;100482.68;1735037;82;21153;-79
2021/05/26 02:23:26;;;;;;;11.22;5.12;;;;;;;14.60;83.37;100483.16;1734443;81;21332;-79
2021/05/26 02:26:32;;;;;;;9.38;6.08;;;;;;;14.78;82.72;100490.94;1735145;82;21312;-79
2021/05/26 02:29:38;;;;;;;10.28;5.50;;;;;;;14.96;82.29;100487.17;1734972;81;21316;-79
2021/05/26 02:32:45;;;;;;;7.10;5.15;;;;;;;15.15;81.82;100488.36;1734903;81;21858;-79
2021/05/26 02:35:53;;;;;;;6.70;4.97;;;;;;;15.35;81.40;100491.23;1734939;82;21723;-79
2021/05/26 02:38:59;;;;;;;8.28;5.25;;;;;;;15.66;80.68;100492.67;1734980;81;21894;-79
2021/05/26 02:42:04;;;;;;;6.90;4.58;;;;;;;15.97;79.75;100493.02;1735040;82;21585;-79
2021/05/26 02:45:11;;;;;;;6.62;4.87;;;;;;;16.26;78.46;100498.72;1735059;82;21814;-79
2021/05/26 02:48:16;;;;;;;7.83;4.95;;;;;;;16.39;77.05;100496.53;1735003;81;21332;-79
2021/05/26 02:51:22;;;;;;;10.28;4.87;;;;;;;16.50;76.69;100501.41;1735026;82;21188;-79
2021/05/26 02:54:27;;;;;;;7.67;4.28;;;;;;;16.58;76.01;100500.38;1734942;81;22230;-79
2021/05/26 02:57:32;;;;;;;14.70;5.40;;;;;;;16.58;75.60;100505.36;1707512;81;21166;-79
2021/05/26 03:00:47;;;;;;;10.50;5.05;;;;;;;16.59;75.51;100507.05;1608906;82;21886;-79
2021/05/26 03:03:54;;;;;;;6.55;4.50;;;;;;;16.63;75.23;100509.41;1734341;81;21324;-79
2021/05/26 03:07:03;;;;;;;9.00;4.50;;;;;;;16.58;75.33;100509.50;1734996;82;21185;-79
2021/05/26 03:10:12;;;;;;;9.80;4.85;;;;;;;16.59;75.28;100505.67;1734241;82;21227;-79
2021/05/26 03:13:20;;;;;;;6.20;4.80;;;;;;;16.56;75.26;100508.00;1733727;81;21208;-80
2021/05/26 03:16:26;;;;;;;9.65;5.20;;;;;;;16.53;75.39;100515.34;1728811;82;21264;-79
2021/05/26 03:19:34;;;;;;;11.95;5.47;;;;;;;16.52;75.38;100505.37;1727815;83;21951;-79
2021/05/26 03:22:56;;;;;;;6.35;3.90;;;;;;;16.49;75.44;100513.52;1727443;83;22189;-80
2021/05/26 03:26:19;;;;;;;6.92;5.03;;;;;;;16.48;75.33;100516.51;1733856;82;21281;-79
2021/05/26 03:29:24;;;;;;;11.70;5.30;;;;;;;16.42;75.40;100523.73;1734392;81;21193;-80
2021/05/26 03:32:30;;;;;;;9.25;4.58;;;;;;;16.32;75.74;100518.58;1735041;81;21159;-79
2021/05/26 03:35:36;;;;;;;6.85;4.97;;;;;;;16.34;75.99;100531.66;1719614;82;21299;-80
2021/05/26 03:38:44;;;;;;;10.93;4.97;;;;;;;16.36;75.88;100524.00;1716747;82;21265;-79
2021/05/26 03:41:51;;;;;;;7.30;4.78;;;;;;;16.45;76.04;100526.05;1716601;81;21290;-80
2021/05/26 03:44:56;;;;;;;8.10;5.05;;;;;;;16.61;75.89;100527.05;1727249;82;21260;-80
2021/05/26 03:48:03;;;;;;;6.62;4.80;;;;;;;16.76;75.64;100523.27;1721807;82;21276;-80
2021/05/26 03:51:09;;;;;;;7.95;4.80;;;;;;;16.96;74.95;100525.48;1733947;82;21258;-80
2021/05/26 03:54:16;;;;;;;13.48;6.60;;;;;;;17.16;74.31;100529.61;1729006;82;21172;-80
2021/05/26 03:57:21;;;;;;;13.70;7.58;;;;;;;17.37;73.87;100528.00;1730926;82;21273;-79
2021/05/26 04:00:28;;;;;;;21.80;8.38;;;;;;;17.55;72.95;100531.48;1729698;82;21216;-79
2021/05/26 04:03:35;;;;;;;26.73;9.65;;;;;;;17.75;72.25;100533.37;1729186;82;21712;-79
2021/05/26 04:06:42;;;;;;;26.33;11.25;;;;;;;17.97;71.42;100536.13;1729539;82;21877;-80
2021/05/26 04:09:47;;;;;;;36.63;14.38;;;;;;;18.22;70.74;100539.02;1726688;82;21154;-80
2021/05/26 04:12:55;;;;;;;41.53;13.55;;;;;;;18.44;69.99;100537.28;1721863;82;21810;-80
2021/05/26 04:16:03;;;;;;;28.27;14.68;;;;;;;18.63;69.42;100540.45;1721448;83;21147;-80
2021/05/26 04:19:11;;;;;;;;;;;;;;;18.84;68.90;100539.28;1722634;83;21173;-80
2021/05/26 04:22:18;;;;;;;35.05;14.45;;;;;;;19.03;68.65;100544.36;1719285;83;20308;-80
2021/05/26 04:25:24;;;;;;;26.27;13.83;;;;;;;19.21;69.00;100543.56;1693190;85;21363;-80
2021/05/26 04:28:30;;;;;;;27.32;13.28;;;;;;;19.45;68.87;100548.23;1708168;83;21778;-80
2021/05/26 04:31:36;;;;;;;30.43;12.13;;;;;;;19.69;68.02;100555.37;1711971;83;21284;-80
2021/05/26 04:34:41;;;;;;;27.85;11.55;;;;;;;19.78;67.42;100550.68;1711890;81;21307;-80
2021/05/26 04:37:46;;;;;;;28.20;12.10;;;;;;;19.84;67.32;100560.00;1706847;81;21320;-81
2021/05/26 04:40:51;;;;;;;31.48;13.05;;;;;;;19.93;67.64;100565.55;1708350;83;21685;-79
2021/05/26 04:43:56;;;;;;;28.98;12.70;;;;;;;20.05;67.92;100566.48;1709982;81;21225;-81
2021/05/26 04:47:02;;;;;;;26.57;11.57;;;;;;;20.21;68.25;100566.92;1708909;81;21428;-81
2021/05/26 04:50:07;;;;;;;24.85;8.78;;;;;;;20.37;68.08;100560.71;1711920;81;21275;-79
2021/05/26 04:53:12;;;;;;;20.70;8.15;;;;;;;20.58;67.15;100569.13;1711232;82;21315;-80
2021/05/26 04:56:17;;;;;;;16.55;7.90;;;;;;;20.78;65.85;100566.89;1706451;83;21224;-80
2021/05/26 04:59:22;;;;;;;16.90;8.85;;;;;;;21.03;64.75;100555.60;1706702;83;21907;-82
2021/05/26 05:02:27;;;;;;;15.15;7.87;;;;;;;21.32;64.16;100562.19;1709495;83;21339;-84
2021/05/26 05:05:32;;;;;;;18.20;8.35;;;;;;;21.63;63.17;100559.57;1707664;81;21323;-83
2021/05/26 05:08:38;;;;;;;13.48;8.05;;;;;;;21.91;62.76;100560.20;1707961;83;21284;-83
2021/05/26 05:11:45;;;;;;;16.50;7.05;;;;;;;22.10;62.00;100562.27;1702217;83;21771;-84
2021/05/26 05:14:53;;;;;;;16.12;6.72;;;;;;;22.29;61.52;100564.92;1723323;81;21193;-84
2021/05/26 05:18:00;;;;;;;14.93;6.92;;;;;;;22.52;60.92;100580.16;1724384;82;21690;-80
2021/05/26 05:21:05;;;;;;;11.65;5.72;;;;;;;22.72;60.46;100560.19;1723167;81;22174;-85
2021/05/26 05:24:09;;;;;;;12.37;4.70;;;;;;;22.89;59.65;100570.02;1704423;81;21767;-85
2021/05/26 05:27:14;;;;;;;13.58;5.65;;;;;;;22.95;58.86;100559.23;1722265;81;21885;-83
2021/05/26 05:30:25;;;;;;;8.35;5.15;;;;;;;22.95;59.55;100569.00;1721516;81;21187;-85
2021/05/26 05:33:31;;;;;;;13.10;5.60;;;;;;;23.06;59.32;100565.87;1721932;81;21206;-83
2021/05/26 05:36:29;;;;;;;14.87;5.75;;;;;;;23.20;58.67;100569.45;1720795;81;21629;-83
2021/05/26 05:39:35;;;;;;;11.30;5.37;;;;;;;23.35;58.33;100563.83;1720527;81;21683;-84
2021/05/26 05:42:39;;;;;;;8.43;4.70;;;;;;;23.50;57.66;100571.05;1718447;81;21471;-85
2021/05/26 05:45:45;;;;;;;10.68;4.97;;;;;;;23.71;57.10;100573.61;1691143;82;21184;-83
2021/05/26 05:48:51;;;;;;;6.05;4.20;;;;;;;23.85;56.98;100569.91;1723867;81;21291;-84
2021/05/26 05:51:57;;;;;;;7.62;4.65;;;;;;;24.02;55.73;100579.09;1719210;82;21814;-85
2021/05/26 05:55:07;;;;;;;;;;;;;;;24.15;55.61;100573.13;1723450;81;21884;-83
2021/05/26 05:58:14;;;;;;;4.87;3.55;;;;;;;24.22;54.86;100568.16;1715786;81;20255;-83
2021/05/26 06:01:22;;;;;;;6.85;4.00;;;;;;;24.20;54.49;100579.33;1724169;81;21845;-82
2021/05/26 06:08:03;;;;;;;7.10;3.60;;;;;;;24.33;53.91;100580.34;1776003;79;21266;-81
2021/05/26 06:11:09;;;;;;;7.90;4.42;;;;;;;24.57;52.93;100581.48;1776249;79;21335;-80
2021/05/26 06:14:14;;;;;;;7.45;3.75;;;;;;;24.77;53.09;100575.27;1768530;79;22205;-81
2021/05/26 06:17:21;;;;;;;5.22;3.80;;;;;;;24.91;52.90;100580.16;1763982;79;21903;-78
2021/05/26 06:20:28;;;;;;;8.05;3.60;;;;;;;25.06;51.42;100577.22;1764768;79;22309;-78
2021/05/26 06:23:37;;;;;;;6.53;3.10;;;;;;;25.22;51.82;100579.09;1773502;79;21327;-78
2021/05/26 06:26:46;;;;;;;7.25;3.40;;;;;;;25.31;51.11;100581.66;1766804;79;21284;-77
2021/05/26 06:29:52;;;;;;;6.30;3.17;;;;;;;25.26;50.59;100579.37;1764086;79;21209;-77
2021/05/26 06:32:57;;;;;;;9.00;3.15;;;;;;;25.26;50.61;100580.22;1763257;81;21607;-76
2021/05/26 06:36:02;;;;;;;7.78;3.30;;;;;;;25.16;49.38;100584.34;1764818;79;21256;-76
2021/05/26 06:39:09;;;;;;;6.37;3.85;;;;;;;25.09;48.99;100576.17;1708186;82;21231;-76
2021/05/26 06:42:14;;;;;;;6.22;4.17;;;;;;;24.97;49.65;100572.66;1763955;81;22266;-76
2021/05/26 06:45:20;;;;;;;7.62;4.67;;;;;;;24.90;50.86;100578.48;1764588;79;21359;-76
2021/05/26 06:48:25;;;;;;;7.42;3.72;;;;;;;24.94;51.04;100574.61;1763444;79;21310;-76
2021/05/26 06:51:33;;;;;;;6.25;4.12;;;;;;;25.04;51.52;100577.49;1709239;82;21352;-76
2021/05/26 06:54:38;;;;;;;7.55;4.62;;;;;;;25.05;51.20;100576.37;1764021;81;21217;-75
2021/05/26 06:57:44;;;;;;;6.25;4.05;;;;;;;25.11;51.23;100579.53;1764496;79;21299;-76
2021/05/26 07:00:49;;;;;;;8.28;4.12;;;;;;;25.13;50.62;100574.53;1762906;79;21403;-76
2021/05/26 07:03:56;;;;;;;7.30;4.10;;;;;;;25.14;49.54;100578.17;1764406;79;21885;-76
2021/05/26 07:07:05;;;;;;;5.70;3.85;;;;;;;25.01;50.42;100572.42;1762853;79;21280;-75
2021/05/26 07:10:09;;;;;;;6.10;4.28;;;;;;;25.05;50.57;100570.78;1764732;81;21267;-77
2021/05/26 07:13:17;;;;;;;8.70;4.53;;;;;;;25.14;50.76;100570.62;1761795;79;21259;-76
2021/05/26 07:16:29;;;;;;;13.93;4.05;;;;;;;25.09;50.58;100564.98;1721593;81;21346;-76
2021/05/26 07:19:34;;;;;;;4.80;3.60;;;;;;;25.02;50.89;100564.86;1763710;79;21952;-76
2021/05/26 07:22:39;;;;;;;9.10;4.30;;;;;;;24.92;49.96;100562.26;1718733;81;21701;-77
2021/05/26 07:25:46;;;;;;;6.20;4.62;;;;;;;24.70;49.63;100560.95;1763663;81;21625;-77
2021/05/26 07:28:52;;;;;;;8.90;5.28;;;;;;;24.57;50.48;100571.70;1724268;81;21845;-77
2021/05/26 07:31:59;;;;;;;11.85;5.40;;;;;;;24.58;51.20;100563.03;1719179;81;21238;-79
2021/05/26 07:35:05;;;;;;;11.43;5.53;;;;;;;24.61;51.66;100561.12;1760233;79;21275;-77
2021/05/26 07:38:12;;;;;;;9.33;5.70;;;;;;;24.81;50.45;100556.29;1755824;79;21893;-76
2021/05/26 07:41:18;;;;;;;13.40;5.55;;;;;;;24.98;48.67;100556.16;1759263;79;21299;-77
2021/05/26 07:44:23;;;;;;;13.70;5.22;;;;;;;25.14;49.34;100555.78;1764124;81;21416;-77
2021/05/26 07:47:31;;;;;;;22.98;5.70;;;;;;;25.23;47.42;100556.42;1760477;81;21258;-76
2021/05/26 07:50:35;;;;;;;17.60;6.33;;;;;;;25.17;47.86;100560.30;1758797;80;21154;-77
2021/05/26 07:53:42;;;;;;;8.65;4.90;;;;;;;25.22;48.16;100567.34;1757907;81;21205;-78
2021/05/26 07:56:46;;;;;;;12.88;5.55;;;;;;;25.27;47.69;100562.89;1758636;81;21197;-77
2021/05/26 07:59:52;;;;;;;15.80;6.60;;;;;;;25.30;48.26;100567.94;1764338;81;21253;-76
2021/05/26 08:02:59;;;;;;;14.00;6.92;;;;;;;25.12;47.34;100564.42;1763566;79;21280;-77
2021/05/26 08:06:04;;;;;;;14.90;7.00;;;;;;;25.00;47.92;100558.14;1759748;79;22160;-78
2021/05/26 08:09:09;;;;;;;10.28;5.55;;;;;;;25.11;48.13;100557.14;1762608;80;21322;-78
2021/05/26 08:12:14;;;;;;;12.20;5.97;;;;;;;25.31;47.99;100565.42;1759002;80;21766;-78
2021/05/26 08:15:21;;;;;;;11.05;6.58;;;;;;;25.41;47.20;100553.77;1759221;79;21217;-78
2021/05/26 08:18:29;;;;;;;12.98;6.12;;;;;;;25.42;46.78;100558.81;1759234;79;21176;-78
2021/05/26 08:21:42;;;;;;;18.92;10.28;;;;;;;25.35;47.85;100558.18;1802244;76;38645;-78
2021/05/26 08:24:49;;;;;;;13.45;9.03;;;;;;;25.36;47.89;100555.13;1786874;78;21213;-78
2021/05/26 08:27:55;;;;;;;13.95;8.10;;;;;;;25.49;47.72;100554.64;1791174;78;21212;-77
2021/05/26 08:31:01;;;;;;;26.75;13.72;;;;;;;25.49;45.92;100556.05;1787943;78;21188;-77
2021/05/26 08:34:07;;;;;;;37.42;17.60;;;;;;;25.40;45.88;100555.41;1792406;78;21747;-79
2021/05/26 08:37:14;;;;;;;40.03;14.50;;;;;;;25.31;46.42;100554.22;1791708;78;21299;-78
2021/05/26 08:40:20;;;;;;;27.42;13.40;;;;;;;25.45;45.93;100551.25;1789524;78;21555;-78
2021/05/26 08:43:46;;;;;;;16.55;9.10;;;;;;;25.77;45.73;100542.81;1808732;76;22561;-79
2021/05/26 08:46:50;;;;;;;20.62;9.25;;;;;;;25.90;44.59;100547.09;1753257;79;21278;-80
2021/05/26 08:49:56;;;;;;;23.52;10.40;;;;;;;25.81;42.31;100550.13;1777568;79;21190;-80
2021/05/26 08:53:00;;;;;;;28.38;13.85;;;;;;;25.67;43.00;100543.56;1774567;79;21165;-80
2021/05/26 08:56:05;;;;;;;17.15;9.10;;;;;;;25.63;43.60;100545.77;1716970;81;21181;-81
2021/05/26 08:59:11;;;;;;;11.95;4.92;;;;;;;25.63;44.34;100542.97;1716231;81;21317;-79
2021/05/26 09:02:18;;;;;;;13.15;6.10;;;;;;;25.83;44.38;100538.07;1722500;82;21581;-79
2021/05/26 09:05:33;;;;;;;9.65;5.55;;;;;;;26.06;43.56;100548.00;1720015;81;21311;-79
2021/05/26 09:08:39;;;;;;;5.70;3.30;;;;;;;26.18;41.71;100545.26;1721531;81;21918;-78
2021/05/26 09:11:43;;;;;;;9.75;4.25;;;;;;;26.33;40.56;100545.03;1720248;81;21268;-78
2021/05/26 09:14:48;;;;;;;11.43;4.03;;;;;;;26.35;40.43;100539.98;1740818;80;21327;-78
2021/05/26 09:17:58;;;;;;;6.53;3.50;;;;;;;26.43;41.90;100547.89;1720060;81;21173;-78
2021/05/26 09:21:04;;;;;;;10.18;3.70;;;;;;;26.60;41.54;100538.69;1718285;81;21554;-78
2021/05/26 09:24:28;;;;;;;7.15;3.15;;;;;;;26.74;39.62;100538.44;1695830;82;21796;-79
2021/05/26 09:27:32;;;;;;;6.60;3.15;;;;;;;26.83;37.01;100533.69;1717719;82;21178;-78
2021/05/26 09:30:40;;;;;;;7.70;3.15;;;;;;;26.75;38.08;100531.70;1720970;82;21874;-77
2021/05/26 09:33:51;;;;;;;8.90;3.20;;;;;;;26.68;37.46;100529.73;1721753;82;21310;-77
2021/05/26 09:36:55;;;;;;;7.58;3.60;;;;;;;26.53;38.04;100537.26;1718577;82;21706;-78
2021/05/26 09:40:10;;;;;;;6.15;3.67;;;;;;;26.33;38.96;100534.66;1710050;82;21180;-76
2021/05/26 09:43:14;;;;;;;2.92;2.47;;;;;;;26.20;38.32;100530.39;1713792;82;21452;-78
2021/05/26 09:46:38;;;;;;;5.92;2.95;;;;;;;26.14;39.28;100532.91;1704297;82;21889;-75
2021/05/26 09:49:43;;;;;;;4.47;3.37;;;;;;;26.24;40.20;100533.50;1761901;80;21181;-76
2021/05/26 09:53:04;;;;;;;8.43;3.22;;;;;;;26.28;39.58;100529.59;1761917;80;21173;-79
2021/05/26 09:56:11;;;;;;;10.23;2.80;;;;;;;26.38;39.97;100528.22;1760868;79;22003;-77
2021/05/26 09:59:15;;;;;;;8.83;3.22;;;;;;;26.55;38.44;100530.27;1761319;79;21178;-76
2021/05/26 10:02:23;;;;;;;4.55;3.20;;;;;;;26.51;38.16;100524.92;1761439;79;21181;-77
2021/05/26 10:05:29;;;;;;;7.15;3.05;;;;;;;26.58;39.57;100520.44;1752977;80;21754;-77
2021/05/26 10:08:53;;;;;;;5.58;2.83;;;;;;;26.69;39.45;100520.76;1755013;80;21205;-77
2021/05/26 10:12:03;;;;;;;4.45;3.10;;;;;;;26.51;39.47;100517.91;1762410;80;21646;-77
2021/05/26 10:15:12;;;;;;;8.43;4.00;;;;;;;26.40;40.65;100517.59;1759411;80;21951;-78
2021/05/26 10:18:17;;;;;;;8.70;2.98;;;;;;;26.34;41.58;100516.70;1764657;79;21861;-78
2021/05/26 10:21:31;;;;;;;5.75;3.05;;;;;;;26.41;41.48;100519.27;1761258;79;21661;-79
2021/05/26 10:24:38;;;;;;;4.58;3.30;;;;;;;26.49;39.74;100518.20;1759334;79;21215;-79
2021/05/26 10:27:47;;;;;;;5.20;2.55;;;;;;;26.64;41.10;100511.78;1759564;80;21472;-77
2021/05/26 10:30:56;;;;;;;3.95;2.25;;;;;;;26.85;40.19;100511.79;1757567;79;21222;-80
2021/05/26 10:34:00;;;;;;;4.12;1.95;;;;;;;26.97;37.37;100506.19;1761575;79;21321;-79
2021/05/26 10:37:06;;;;;;;6.45;2.17;;;;;;;26.96;38.02;100513.47;1762072;79;22066;-79
2021/05/26 10:40:35;;;;;;;6.53;2.70;;;;;;;26.86;36.70;100514.87;1708781;81;21243;-78
2021/05/26 10:43:41;;;;;;;7.28;2.98;;;;;;;26.59;36.48;100508.13;1760830;80;21197;-78
2021/05/26 10:46:48;;;;;;;4.33;2.47;;;;;;;26.35;37.60;100505.80;1765688;80;21279;-79
2021/05/26 10:49:58;;;;;;;3.10;2.37;;;;;;;26.28;38.65;100500.16;1765335;80;21629;-79
2021/05/26 10:53:10;;;;;;;;;;;;;;;26.39;39.89;100504.66;1704204;82;21343;-79
2021/05/26 10:56:43;;;;;;;5.72;2.70;;;;;;;26.51;39.36;100492.67;1705517;82;20312;-79
2021/05/26 10:59:49;;;;;;;7.25;2.72;;;;;;;26.61;39.33;100492.69;1705290;82;21937;-79
2021/05/26 11:02:59;;;;;;;3.95;2.50;;;;;;;26.69;39.09;100497.75;1691288;82;21189;-79
2021/05/26 11:06:08;;;;;;;4.22;2.52;;;;;;;26.61;38.82;100493.25;1691838;82;21162;-79
2021/05/26 11:09:14;;;;;;;3.83;2.33;;;;;;;26.39;39.34;100499.05;1704452;82;21304;-79
2021/05/26 11:12:20;;;;;;;5.42;2.27;;;;;;;26.30;38.61;100491.77;1703596;82;21193;-78
2021/05/26 11:15:58;;;;;;;3.83;2.17;;;;;;;26.27;38.06;100490.06;1699741;82;21201;-77
2021/05/26 11:19:13;;;;;;;4.58;2.45;;;;;;;26.25;38.79;100491.19;1762844;80;21299;-79
2021/05/26 11:22:20;;;;;;;4.45;1.92;;;;;;;26.32;38.36;100485.31;1762600;79;21169;-80
2021/05/26 11:25:27;;;;;;;7.87;2.42;;;;;;;26.38;38.39;100478.58;1761908;80;21158;-80
2021/05/26 11:28:41;;;;;;;3.87;2.35;;;;;;;26.41;38.73;100481.41;1763221;80;21308;-81
2021/05/26 11:31:46;;;;;;;4.53;2.35;;;;;;;26.39;37.82;100478.86;1765866;80;21885;-80
2021/05/26 11:34:55;;;;;;;4.45;2.45;;;;;;;26.36;38.06;100475.79;1758867;80;21143;-80
2021/05/26 11:38:00;;;;;;;4.40;2.10;;;;;;;26.39;38.23;100473.81;1764052;79;21877;-80
2021/05/26 11:41:06;;;;;;;2.72;1.72;;;;;;;26.40;37.66;100469.35;1705056;83;21936;-80
2021/05/26 11:44:12;;;;;;;4.15;2.20;;;;;;;26.39;37.43;100466.80;1701776;83;21189;-80
2021/05/26 11:47:18;;;;;;;7.22;2.20;;;;;;;26.36;36.88;100465.41;1695595;83;21171;-79
2021/05/26 11:50:26;;;;;;;3.12;1.80;;;;;;;26.31;36.44;100465.97;1760083;79;21305;-80
2021/05/26 11:53:31;;;;;;;4.22;2.22;;;;;;;26.25;35.92;100460.35;1700074;83;21232;-79
2021/05/26 11:56:36;;;;;;;3.25;1.85;;;;;;;26.21;37.00;100466.79;1764300;79;21929;-80
2021/05/26 11:59:42;;;;;;;10.35;2.20;;;;;;;26.29;35.94;100462.58;1770124;80;21283;-80
2021/05/26 12:03:01;;;;;;;3.33;1.92;;;;;;;26.35;36.35;100455.86;1716569;81;21208;-80
2021/05/26 12:06:08;;;;;;;4.45;2.00;;;;;;;26.36;35.82;100460.37;1764937;79;21691;-81
2021/05/26 12:09:14;;;;;;;3.42;1.90;;;;;;;26.33;36.23;100459.52;1763929;79;22223;-79
2021/05/26 12:12:23;;;;;;;2.92;1.85;;;;;;;26.36;35.49;100454.20;1761890;79;21165;-80
2021/05/26 12:15:29;;;;;;;4.58;1.72;;;;;;;26.42;36.49;100453.64;1760637;79;21869;-80
2021/05/26 12:18:33;;;;;;;2.37;1.72;;;;;;;26.42;36.40;100450.84;1698632;84;22106;-79
2021/05/26 12:21:43;;;;;;;6.62;1.60;;;;;;;26.41;36.41;100451.97;1757885;79;21335;-79
2021/05/26 12:25:06;;;;;;;4.90;1.70;;;;;;;26.46;35.37;100452.00;1768170;79;21845;-79
2021/05/26 12:28:29;;;;;;;2.90;1.50;;;;;;;26.51;35.33;100446.39;1696014;83;21212;-79
2021/05/26 12:31:37;;;;;;;6.28;1.87;;;;;;;26.56;34.09;100446.96;1720060;82;21882;-79
2021/05/26 12:34:43;;;;;;;5.42;2.15;;;;;;;26.57;34.34;100448.64;1718814;82;21280;-78
2021/05/26 12:37:55;;;;;;;6.95;1.60;;;;;;;26.56;32.23;100449.20;1765069;80;21260;-77
2021/05/26 12:41:00;;;;;;;3.87;1.98;;;;;;;26.52;33.07;100443.86;1770885;79;21319;-77
2021/05/26 12:44:07;;;;;;;6.75;1.72;;;;;;;26.53;34.53;100437.69;1767070;80;21295;-77
2021/05/26 12:47:23;;;;;;;4.33;1.85;;;;;;;26.54;36.13;100433.23;1702775;82;21187;-77
2021/05/26 12:50:28;;;;;;;2.90;1.80;;;;;;;26.56;36.21;100431.53;1711133;83;21193;-76
2021/05/26 12:53:40;;;;;;;3.25;1.60;;;;;;;26.59;36.28;100426.78;1711686;83;21459;-77
2021/05/26 12:56:44;;;;;;;2.27;1.62;;;;;;;26.57;35.08;100424.80;1716429;82;21185;-77
2021/05/26 12:59:51;;;;;;;2.60;1.60;;;;;;;26.50;35.31;100423.69;1713333;82;21870;-77
2021/05/26 13:02:57;;;;;;;5.25;2.22;;;;;;;26.40;35.61;100423.08;1711051;82;21327;-78
2021/05/26 13:06:01;;;;;;;4.45;1.90;;;;;;;26.39;36.16;100424.18;1715671;82;21748;-77
2021/05/26 13:09:14;;;;;;;4.20;2.00;;;;;;;26.41;36.28;100419.72;1712449;82;21876;-76
2021/05/26 13:12:18;;;;;;;2.50;2.10;;;;;;;26.40;36.49;100420.28;1716327;82;22183;-76
2021/05/26 13:15:37;;;;;;;4.37;2.10;;;;;;;26.34;36.26;100412.95;1701227;82;21544;-77
2021/05/26 13:18:37;;;;;;;2.45;1.67;;;;;;;26.26;36.36;100409.33;1719620;82;21283;-77
2021/05/26 13:21:29;;;;;;;3.10;1.95;;;;;;;26.18;35.96;100404.26;1713918;82;21322;-78
2021/05/26 13:24:15;;;;;;;3.77;1.57;;;;;;;26.07;34.68;100406.20;1731994;82;21320;-78
2021/05/26 13:27:14;;;;;;;3.72;1.70;;;;;;;26.02;34.96;100402.52;1713496;83;21166;-78
2021/05/26 13:30:20;;;;;;;3.80;2.10;;;;;;;25.99;35.65;100397.77;1710032;83;21286;-81
2021/05/26 13:33:26;;;;;;;3.87;1.90;;;;;;;26.02;36.99;100399.19;1712076;82;21339;-81
2021/05/26 13:36:33;;;;;;;3.92;2.02;;;;;;;26.03;37.18;100393.02;1732613;80;21177;-81
2021/05/26 13:39:40;;;;;;;2.60;1.80;;;;;;;26.03;37.48;100386.86;1702423;84;21176;-81
2021/05/26 13:42:48;;;;;;;4.58;1.90;;;;;;;26.03;37.63;100389.66;1706903;83;21339;-82
2021/05/26 13:45:54;;;;;;;4.05;2.02;;;;;;;26.03;38.03;100388.26;1714977;82;21283;-81
2021/05/26 13:49:00;;;;;;;5.28;2.10;;;;;;;26.02;37.53;100388.52;1748262;82;21336;-81
2021/05/26 13:52:05;;;;;;;3.47;1.82;;;;;;;25.97;36.87;100384.61;1718185;83;21602;-81
2021/05/26 13:55:12;;;;;;;5.90;2.10;;;;;;;25.94;36.90;100383.75;1749023;82;21295;-81
2021/05/26 13:58:17;;;;;;;3.75;2.60;;;;;;;25.92;37.69;100379.52;1720244;82;21228;-82
2021/05/26 14:01:22;;;;;;;5.92;2.30;;;;;;;25.90;38.52;100385.98;1728898;82;21335;-82
2021/05/26 14:04:28;;;;;;;4.03;2.15;;;;;;;25.86;39.26;100381.48;1719961;82;21688;-82
2021/05/26 14:07:37;;;;;;;2.60;2.00;;;;;;;25.85;39.11;100383.16;1750329;82;21426;-82
2021/05/26 14:10:43;;;;;;;4.42;2.15;;;;;;;25.83;39.00;100376.98;1719321;83;21794;-82
2021/05/26 14:13:49;;;;;;;4.90;2.33;;;;;;;25.82;38.61;100383.70;1750519;82;21333;-82
2021/05/26 14:16:53;;;;;;;4.40;2.47;;;;;;;25.77;38.37;100382.29;1720756;83;21232;-82
2021/05/26 14:20:00;;;;;;;6.53;2.40;;;;;;;25.71;38.43;100385.05;1750909;82;21169;-82
2021/05/26 14:23:08;;;;;;;3.90;2.37;;;;;;;25.65;38.07;100386.16;1721277;82;21319;-82
2021/05/26 14:26:12;;;;;;;4.75;2.17;;;;;;;25.63;38.84;100379.97;1750623;82;21217;-82
2021/05/26 14:29:19;;;;;;;3.85;2.37;;;;;;;25.61;39.27;100381.38;1720024;83;21212;-82
2021/05/26 14:32:23;;;;;;;4.12;2.52;;;;;;;25.59;38.95;100381.62;1750718;82;21753;-82